YCDS weather

Childers Airport
Queensland, Australia

Public forecast

Using degrees Celsius for public forecast. Weather courtesy of forecast.io.

METAR (pilot weather report)

Closest report is Bundaberg Airport, 21.0 nm (38.9 km) N. Retrieved 2019/04/21 10:00 UTC (10 minutes ago):

YBUD 211000Z AUTO 17007KT 9999 // SCT040 OVC050 22/18 Q1019

TAF (pilot weather forecast)

Forecast is more than 12 hours old.

Closest forecast is Gladstone Airport, 102.9 nm (190.6 km) NW. Retrieved 2019/04/20 18:00 UTC (16 hours ago):

TAF YGLA 201628Z 2018/2106 15008KT 9999 -SHRA SCT015 BKN025 FM202300 14016KT 9999 -SHRA SCT025 BKN040 INTER 2018/2106 12017G27KT 3000 SHRA BKN010